Time;durP1;ratioP1;P1;durP2;ratioP2;P2;SDS_P1;SDS_P2;PMS_P1;PMS_P2;Temp;Humidity;BMP_temperature;BMP_pressure;BME280_temperature;BME280_humidity;BME280_pressure;Samples;Min_cycle;Max_cycle;Signal;HPM_P1;HPM_P2
2022/02/11 00:00:53;;;;;;;6.8;5.2;;;;;;;2.09;80.49121;941.5603;;;;
2022/02/11 00:06:24;;;;;;;8.9;6.7;;;;;;;2.12;81.14355;941.413;;;;
2022/02/11 00:08:20;;;;;;;10.5;6.2;;;;;;;2.4;80.4248;941.4409;;;;
2022/02/11 00:10:49;;;;;;;11.9;6.9;;;;;;;2.5;79.76172;941.5118;;;;
2022/02/11 00:13:21;;;;;;;15.5;8.8;;;;;;;2.66;79.20703;941.4719;;;;
2022/02/11 00:16:04;;;;;;;14.5;8.7;;;;;;;2.68;79.23535;941.4494;;;;
2022/02/11 00:18:42;;;;;;;30.1;18.1;;;;;;;2.5;79.57129;941.3059;;;;
2022/02/11 00:21:19;;;;;;;7.6;5.4;;;;;;;2.37;79.9043;941.3972;;;;
2022/02/11 00:23:57;;;;;;;8.2;4.6;;;;;;;2.25;80.84473;941.3527;;;;
2022/02/11 00:26:37;;;;;;;5.6;4.1;;;;;;;2.14;81.29297;941.2992;;;;
2022/02/11 00:32:11;;;;;;;9.5;6.3;;;;;;;2.23;81.39063;941.2316;;;;
2022/02/11 00:34:44;;;;;;;7.2;4.7;;;;;;;2.31;81.18066;941.2615;;;;
2022/02/11 00:37:18;;;;;;;6.6;4.1;;;;;;;2.25;81.55078;941.2;;;;
2022/02/11 00:42:17;;;;;;;4.7;3.4;;;;;;;2.37;81.54004;941.1969;;;;
2022/02/11 00:53:27;;;;;;;6;3.9;;;;;;;2.72;80.6416;941.1208;;;;
2022/02/11 00:53:42;;;;;;;9.3;5.2;;;;;;;2.76;80.40527;940.9897;;;;
2022/02/11 01:02:19;;;;;;;5.8;3.8;;;;;;;2.71;80.62891;940.7814;;;;
2022/02/11 01:04:41;;;;;;;4.5;3.1;;;;;;;2.83;80.36133;940.7459;;;;
2022/02/11 01:07:08;;;;;;;5.6;3.3;;;;;;;2.92;79.41309;940.6783;;;;
2022/02/11 01:09:40;;;;;;;4.8;2.7;;;;;;;2.99;78.78711;940.5507;;;;
2022/02/11 01:12:05;;;;;;;5.7;3;;;;;;;3.09;78.61523;940.507;;;;
2022/02/11 01:14:35;;;;;;;4.8;3;;;;;;;2.97;79.25391;940.4387;;;;
2022/02/11 01:17:16;;;;;;;3.3;2.5;;;;;;;2.99;79.26953;940.3695;;;;
2022/02/11 01:19:58;;;;;;;4.3;2.7;;;;;;;2.91;79.17578;940.4685;;;;
2022/02/11 01:22:23;;;;;;;5.8;3.1;;;;;;;2.71;80.47168;940.4229;;;;
2022/02/11 01:25:02;;;;;;;6.5;4.1;;;;;;;2.47;81.87207;940.4534;;;;
2022/02/11 01:27:24;;;;;;;7.6;4.6;;;;;;;2.26;83.09766;940.3406;;;;
2022/02/11 01:30:39;;;;;;;7.3;4.6;;;;;;;;;;;;;
2022/02/11 01:32:23;;;;;;;7.9;4.6;;;;;;;;;;;;;
2022/02/11 01:34:50;;;;;;;6.4;3.8;;;;;;;;;;;;;
2022/02/11 01:37:17;;;;;;;5.9;4;;;;;;;;;;;;;
2022/02/11 01:40:09;;;;;;;4.7;3.3;;;;;;;;;;;;;
2022/02/11 01:45:24;;;;;;;5.9;4;;;;;;;;;;;;;
2022/02/11 01:47:09;;;;;;;4.9;3.7;;;;;;;;;;;;;
2022/02/11 01:49:27;;;;;;;5.8;3.8;;;;;;;;;;;;;
2022/02/11 01:51:41;;;;;;;6.8;4;;;;;;;;;;;;;
2022/02/11 01:54:05;;;;;;;6;4.1;;;;;;;;;;;;;
2022/02/11 01:56:36;;;;;;;6.9;4.5;;;;;;;;;;;;;
2022/02/11 02:01:39;;;;;;;5.4;3.9;;;;;;;;;;;;;
2022/02/11 02:04:22;;;;;;;5.2;3.6;;;;;;;;;;;;;
2022/02/11 02:06:28;;;;;;;5.5;3.9;;;;;;;;;;;;;
2022/02/11 02:09:08;;;;;;;6.8;4;;;;;;;;;;;;;
2022/02/11 02:14:24;;;;;;;5.3;3.7;;;;;;;;;;;;;
2022/02/11 02:16:28;;;;;;;4.2;3.5;;;;;;;;;;;;;
2022/02/11 02:19:05;;;;;;;5;3.4;;;;;;;;;;;;;
2022/02/11 02:21:35;;;;;;;5.6;3.3;;;;;;;;;;;;;
2022/02/11 02:23:17;;;;;;;3.4;2.8;;;;;;;;;;;;;
2022/02/11 02:25:39;;;;;;;5;3.3;;;;;;;;;;;;;
2022/02/11 02:28:42;;;;;;;4.8;3.2;;;;;;;;;;;;;
2022/02/11 02:38:07;;;;;;;6.3;3.9;;;;;;;;;;;;;
2022/02/11 02:57:09;;;;;;;4;2.8;;;;;;;;;;;;;
2022/02/11 02:59:51;;;;;;;3.7;2.3;;;;;;;;;;;;;
2022/02/11 03:02:03;;;;;;;2.7;2.1;;;;;;;;;;;;;
2022/02/11 03:17:13;;;;;;;5.4;3;;;;;;;;;;;;;
2022/02/11 03:50:41;;;;;;;4.4;2.8;;;;;;;;;;;;;
2022/02/11 03:53:21;;;;;;;3.4;2.6;;;;;;;;;;;;;
2022/02/11 03:58:04;;;;;;;4.3;2.6;;;;;;;;;;;;;
2022/02/11 04:25:45;;;;;;;4.9;2.7;;;;;;;4.28;75.9873;940.3811;;;;
2022/02/11 04:56:22;;;;;;;9.5;5;;;;;;;4.21;78.87695;940.2272;;;;
2022/02/11 05:01:17;;;;;;;5;3.7;;;;;;;4.23;79.04102;940.3188;;;;
2022/02/11 05:03:45;;;;;;;6.4;3.5;;;;;;;4.19;79.50488;940.2026;;;;
2022/02/11 05:06:12;;;;;;;5.1;3.7;;;;;;;4.22;79.24023;940.2507;;;;
2022/02/11 05:08:36;;;;;;;9.2;5.1;;;;;;;3.82;80.14258;940.3864;;;;
2022/02/11 05:11:09;;;;;;;10.2;5.7;;;;;;;3.75;81.2207;940.3763;;;;
2022/02/11 05:13:28;;;;;;;9.2;5.5;;;;;;;3.68;80.78027;940.4341;;;;
2022/02/11 05:16:10;;;;;;;7.8;5.1;;;;;;;3.54;80.75293;940.3074;;;;
2022/02/11 05:18:36;;;;;;;8.7;4.6;;;;;;;3.46;81.13184;940.3091;;;;
2022/02/11 05:21:06;;;;;;;6.2;4;;;;;;;3.56;80.71289;940.1083;;;;
2022/02/11 05:23:37;;;;;;;7.8;4.3;;;;;;;3.76;80.75;940.002;;;;
2022/02/11 05:26:11;;;;;;;7.6;4.3;;;;;;;3.9;80.87695;939.8939;;;;
2022/02/11 05:28:36;;;;;;;5;3.3;;;;;;;3.92;80.34082;939.9497;;;;
2022/02/11 05:31:03;;;;;;;5;3.7;;;;;;;4.02;79.95703;939.9697;;;;
2022/02/11 05:33:31;;;;;;;8.6;5.5;;;;;;;3.88;80.91895;939.9081;;;;
2022/02/11 05:36:02;;;;;;;6.5;4.9;;;;;;;3.78;81.6416;939.9352;;;;
2022/02/11 05:38:31;;;;;;;6.8;4.1;;;;;;;3.78;82.15918;940.0477;;;;
2022/02/11 05:41:03;;;;;;;8.7;5.6;;;;;;;3.45;84.20703;940.1387;;;;
2022/02/11 05:43:33;;;;;;;10.2;6.5;;;;;;;3.4;85.28613;940.2144;;;;
2022/02/11 05:45:58;;;;;;;9.3;4.7;;;;;;;3.32;86.0332;940.3228;;;;
2022/02/11 05:48:24;;;;;;;7.8;4.7;;;;;;;3.22;85.78809;940.3172;;;;
2022/02/11 05:50:49;;;;;;;9.9;4.6;;;;;;;3.19;85.78516;940.475;;;;
2022/02/11 05:53:21;;;;;;;6.6;3.9;;;;;;;2.98;86.29102;940.5525;;;;
2022/02/11 05:55:46;;;;;;;6.6;3.7;;;;;;;3.09;85.94238;940.6116;;;;
2022/02/11 05:58:17;;;;;;;5.8;3.8;;;;;;;3.33;85.31641;940.7985;;;;
2022/02/11 06:00:48;;;;;;;7;4.5;;;;;;;3.41;85.25391;940.98;;;;
2022/02/11 06:03:21;;;;;;;7.8;4.2;;;;;;;3.26;86.2334;940.9734;;;;
2022/02/11 06:05:46;;;;;;;6.8;4.4;;;;;;;3.1;87.72656;940.9683;;;;
2022/02/11 06:08:13;;;;;;;7;4.5;;;;;;;2.93;88.88184;941.0214;;;;
2022/02/11 06:10:40;;;;;;;5.8;4.5;;;;;;;3.11;88.49316;941.0552;;;;
2022/02/11 06:13:10;;;;;;;5.8;3.8;;;;;;;3.08;87.6123;941.0564;;;;
2022/02/11 06:15:48;;;;;;;6.9;4.1;;;;;;;3.12;88.10254;941.0682;;;;
2022/02/11 06:18:14;;;;;;;8.2;4.8;;;;;;;3.14;88.51172;941.2046;;;;
2022/02/11 06:20:44;;;;;;;9.3;5.7;;;;;;;3.26;88.95215;941.3514;;;;
2022/02/11 06:23:15;;;;;;;6.8;4.1;;;;;;;3.3;89.49805;941.4261;;;;
2022/02/11 06:25:43;;;;;;;5.7;3.6;;;;;;;3.44;90.13574;941.5016;;;;
2022/02/11 06:28:16;;;;;;;4.1;2.8;;;;;;;3.62;89.08203;941.4476;;;;
2022/02/11 06:30:45;;;;;;;9.7;8.8;;;;;;;3.71;88.79688;941.6197;;;;
2022/02/11 06:33:10;;;;;;;5.5;3.7;;;;;;;3.79;88.53516;941.7122;;;;
2022/02/11 06:35:41;;;;;;;7;5.1;;;;;;;3.92;88.14551;941.7522;;;;
2022/02/11 06:38:02;;;;;;;7;3.5;;;;;;;4.06;87.43164;941.902;;;;
2022/02/11 06:40:33;;;;;;;5.5;3.1;;;;;;;3.93;88.11328;941.9045;;;;
2022/02/11 06:42:58;;;;;;;6;3.1;;;;;;;3.97;88.26953;942.0104;;;;
2022/02/11 06:45:29;;;;;;;4.4;3;;;;;;;4.07;88.19824;942.0083;;;;
2022/02/11 06:47:56;;;;;;;5.3;3.1;;;;;;;4.19;88.04395;942.0238;;;;
2022/02/11 06:50:21;;;;;;;6.2;4.7;;;;;;;4.03;88.13379;942.2106;;;;
2022/02/11 06:52:55;;;;;;;9.3;6;;;;;;;3.77;89.54297;942.3131;;;;
2022/02/11 06:55:15;;;;;;;13.8;8.3;;;;;;;3.85;89.68164;942.4252;;;;
2022/02/11 06:57:42;;;;;;;15.1;8.8;;;;;;;3.75;89.13281;942.4539;;;;
2022/02/11 07:00:08;;;;;;;8.8;6;;;;;;;3.61;89.69824;942.5535;;;;
2022/02/11 07:02:32;;;;;;;10.1;6.1;;;;;;;3.55;90.77637;942.5734;;;;
2022/02/11 07:05:01;;;;;;;8.6;5.4;;;;;;;3.59;90.68457;942.6777;;;;
2022/02/11 07:07:26;;;;;;;7.2;5.5;;;;;;;3.62;90.87012;942.7156;;;;
2022/02/11 07:09:54;;;;;;;7.7;4.6;;;;;;;3.37;92.0625;942.7614;;;;
2022/02/11 07:12:19;;;;;;;5.8;4;;;;;;;3.37;92.44434;942.8653;;;;
2022/02/11 07:14:49;;;;;;;7.5;5.2;;;;;;;3.29;93.09082;943.0045;;;;
2022/02/11 07:17:18;;;;;;;9.1;5.7;;;;;;;3.58;91.71387;943.0903;;;;
2022/02/11 07:19:48;;;;;;;8.2;6;;;;;;;3.8;90.85254;943.068;;;;
2022/02/11 07:22:19;;;;;;;9.4;6.2;;;;;;;3.44;91.97754;943.1933;;;;
2022/02/11 07:24:51;;;;;;;11.4;6.9;;;;;;;3.55;92.84082;943.1866;;;;
2022/02/11 07:27:19;;;;;;;10.4;7.1;;;;;;;3.71;91.86523;943.342;;;;
2022/02/11 07:29:44;;;;;;;9.4;6.6;;;;;;;3.54;92.66113;943.3345;;;;
2022/02/11 07:32:14;;;;;;;9.1;6.4;;;;;;;3.64;94.69434;943.5329;;;;
2022/02/11 07:34:45;;;;;;;9.5;6.4;;;;;;;3.86;93.76465;943.6331;;;;
2022/02/11 07:37:09;;;;;;;9.9;6.7;;;;;;;3.96;92.12207;943.6822;;;;
2022/02/11 07:39:39;;;;;;;10.3;6;;;;;;;3.96;91.2334;943.7502;;;;
2022/02/11 07:42:09;;;;;;;8.2;5.6;;;;;;;3.9;92.07422;943.8649;;;;
2022/02/11 07:44:41;;;;;;;9.5;5.9;;;;;;;4.02;91.80957;943.9391;;;;
2022/02/11 07:47:11;;;;;;;9.6;6.3;;;;;;;4.15;91.07227;944.0769;;;;
2022/02/11 07:49:37;;;;;;;10.9;6.7;;;;;;;4.32;90.75977;944.1149;;;;
2022/02/11 07:52:02;;;;;;;12.1;7.1;;;;;;;4.06;91.77246;944.1871;;;;
2022/02/11 07:54:31;;;;;;;11.1;7.4;;;;;;;4.17;91.49219;944.2133;;;;
2022/02/11 07:56:58;;;;;;;8.4;6.4;;;;;;;4.22;91.23145;944.2763;;;;
2022/02/11 07:59:26;;;;;;;9.6;6;;;;;;;4.3;90.91113;944.3751;;;;
2022/02/11 08:01:53;;;;;;;6.8;5;;;;;;;4.14;91.08105;944.4554;;;;
2022/02/11 08:04:18;;;;;;;4.6;3.1;;;;;;;4.31;91.92773;944.5325;;;;
2022/02/11 08:06:49;;;;;;;3.2;2.5;;;;;;;4.13;92.98047;944.6394;;;;
2022/02/11 08:09:17;;;;;;;3.1;1.7;;;;;;;4.18;93.08203;944.6119;;;;
2022/02/11 08:11:43;;;;;;;1.2;1.1;;;;;;;4.28;92.125;944.7174;;;;
2022/02/11 08:14:11;;;;;;;1.6;1.2;;;;;;;4.48;91.05176;944.838;;;;
2022/02/11 08:16:50;;;;;;;0.9;0.6;;;;;;;4.43;89.84863;944.8563;;;;
2022/02/11 08:19:18;;;;;;;0.4;0.4;;;;;;;4.23;89.28711;944.9506;;;;
2022/02/11 08:21:40;;;;;;;0.6;0.5;;;;;;;4.32;89.33008;945.0105;;;;
2022/02/11 08:24:08;;;;;;;0.5;0.5;;;;;;;4.5;88.97266;945.0313;;;;
2022/02/11 08:26:33;;;;;;;0.9;0.7;;;;;;;4.25;88.59766;945.2206;;;;
2022/02/11 08:29:08;;;;;;;0.3;0.3;;;;;;;4.15;89.34863;945.3139;;;;
2022/02/11 08:31:38;;;;;;;0.3;0.3;;;;;;;4.21;89.38477;945.3328;;;;
2022/02/11 08:34:10;;;;;;;0.4;0.4;;;;;;;4.11;89.72559;945.3684;;;;
2022/02/11 08:36:39;;;;;;;0.5;0.4;;;;;;;4.2;89.42969;945.4883;;;;
2022/02/11 08:39:09;;;;;;;0.4;0.4;;;;;;;4.1;89.76855;945.5407;;;;
2022/02/11 08:41:34;;;;;;;0.5;0.5;;;;;;;3.88;90.40723;945.6443;;;;
2022/02/11 08:44:01;;;;;;;0.5;0.5;;;;;;;4.06;90.40039;945.6996;;;;
2022/02/11 08:46:27;;;;;;;0.6;0.4;;;;;;;3.9;90.90527;945.8365;;;;
2022/02/11 08:48:54;;;;;;;0.4;0.4;;;;;;;3.58;92.00586;945.8272;;;;
2022/02/11 08:51:19;;;;;;;0.4;0.4;;;;;;;3.65;91.98828;945.9364;;;;
2022/02/11 08:53:52;;;;;;;0.4;0.3;;;;;;;3.78;91.39746;945.9625;;;;
2022/02/11 08:56:17;;;;;;;0.9;0.3;;;;;;;3.58;91.5791;945.9517;;;;
2022/02/11 08:58:48;;;;;;;0.5;0.5;;;;;;;3.79;91.10742;946.0307;;;;
2022/02/11 09:01:19;;;;;;;0.3;0.2;;;;;;;3.57;90.46582;946.0483;;;;
2022/02/11 09:03:44;;;;;;;0.7;0.4;;;;;;;3.4;91.51855;946.2205;;;;
2022/02/11 09:06:10;;;;;;;0.2;0.2;;;;;;;3.14;92.00195;946.1662;;;;
2022/02/11 09:08:35;;;;;;;0.3;0.3;;;;;;;2.99;91.02637;946.302;;;;
2022/02/11 09:11:12;;;;;;;0.4;0.4;;;;;;;2.85;91.27441;946.3892;;;;
2022/02/11 09:13:39;;;;;;;0.5;0.5;;;;;;;3.05;91.53223;946.4556;;;;
2022/02/11 09:16:11;;;;;;;0.6;0.4;;;;;;;3.09;91.5625;946.5433;;;;
2022/02/11 09:18:41;;;;;;;0.5;0.5;;;;;;;2.85;91.80566;946.5933;;;;
2022/02/11 09:21:13;;;;;;;0.4;0.4;;;;;;;2.97;92.42285;946.5659;;;;
2022/02/11 09:23:44;;;;;;;0.4;0.4;;;;;;;2.91;92.03027;946.6553;;;;
2022/02/11 09:26:11;;;;;;;0.8;0.6;;;;;;;3.01;91.95215;946.7191;;;;
2022/02/11 09:28:42;;;;;;;1;0.8;;;;;;;3.13;91.6377;946.5705;;;;
2022/02/11 09:31:18;;;;;;;0.8;0.8;;;;;;;3.2;91.30664;946.6495;;;;
2022/02/11 09:33:46;;;;;;;0.5;0.5;;;;;;;3.24;91.1123;946.7574;;;;
2022/02/11 09:36:19;;;;;;;0.6;0.6;;;;;;;3.09;90.96973;946.7723;;;;
2022/02/11 09:38:42;;;;;;;0.7;0.5;;;;;;;3.17;90.69531;946.8183;;;;
2022/02/11 09:41:09;;;;;;;0.4;0.4;;;;;;;3.26;90.55566;946.8881;;;;
2022/02/11 09:43:34;;;;;;;0.5;0.5;;;;;;;3.37;89.85059;946.9583;;;;
2022/02/11 09:46:08;;;;;;;0.7;0.7;;;;;;;3.45;89.41797;946.9983;;;;
2022/02/11 09:48:32;;;;;;;0.7;0.7;;;;;;;3.6;88.92285;947.1273;;;;
2022/02/11 09:50:59;;;;;;;0.6;0.6;;;;;;;3.32;89.42578;947.1465;;;;
2022/02/11 09:53:25;;;;;;;0.5;0.5;;;;;;;3.47;89.48047;947.2191;;;;
2022/02/11 09:55:50;;;;;;;0.5;0.5;;;;;;;3.29;89.48535;947.2173;;;;
2022/02/11 09:58:18;;;;;;;0.6;0.6;;;;;;;3.19;89.19531;947.3353;;;;
2022/02/11 10:00:44;;;;;;;1.2;1.1;;;;;;;3.2;90.3418;947.4177;;;;
2022/02/11 10:03:12;;;;;;;1.7;1.4;;;;;;;3.48;88.8623;947.3831;;;;
2022/02/11 10:05:37;;;;;;;2.5;2.3;;;;;;;3.48;88.88477;947.4778;;;;
2022/02/11 10:08:05;;;;;;;1.2;1.1;;;;;;;3.32;88.94238;947.5961;;;;
2022/02/11 10:10:48;;;;;;;3;2.6;;;;;;;3.46;88.74414;947.6497;;;;
2022/02/11 10:12:56;;;;;;;21.7;13.7;;;;;;;3.59;89.05371;947.7153;;;;
2022/02/11 10:15:22;;;;;;;6.4;4.3;;;;;;;3.68;87.89258;947.6752;;;;
2022/02/11 10:17:48;;;;;;;2.1;1.9;;;;;;;3.52;88.79102;947.7227;;;;
2022/02/11 10:20:21;;;;;;;1.7;1.6;;;;;;;3.34;89.48535;947.8223;;;;
2022/02/11 10:22:47;;;;;;;2.7;2.5;;;;;;;3.27;89.64941;947.8995;;;;
2022/02/11 10:25:18;;;;;;;1.9;1.6;;;;;;;3.27;90.60254;947.9496;;;;
2022/02/11 10:27:42;;;;;;;2.3;1.8;;;;;;;3.28;90.13477;948.0244;;;;
2022/02/11 10:30:14;;;;;;;2.4;2.2;;;;;;;3.33;90.18945;948.0355;;;;
2022/02/11 10:32:46;;;;;;;1.7;1.6;;;;;;;3.15;91.12695;948.0967;;;;
2022/02/11 10:35:14;;;;;;;1.4;1.3;;;;;;;3.47;90.26465;948.1613;;;;
2022/02/11 10:37:37;;;;;;;1.6;1.4;;;;;;;3.7;89.26953;948.1475;;;;
2022/02/11 10:40:03;;;;;;;1.3;1.2;;;;;;;3.78;88.36328;948.1741;;;;
2022/02/11 10:42:28;;;;;;;1.7;1.6;;;;;;;3.67;88.48633;948.1223;;;;
2022/02/11 10:44:53;;;;;;;1.5;1.4;;;;;;;3.79;88.11914;948.0734;;;;
2022/02/11 10:47:19;;;;;;;1.7;1.2;;;;;;;3.86;87.75;948.1028;;;;
2022/02/11 10:49:44;;;;;;;1.7;1.6;;;;;;;3.81;87.36816;948.0949;;;;
2022/02/11 10:52:09;;;;;;;1.9;1.7;;;;;;;3.7;88.21094;948.1599;;;;
2022/02/11 10:54:39;;;;;;;2.4;1.9;;;;;;;3.76;88.5166;948.1805;;;;
2022/02/11 10:57:10;;;;;;;1.6;1.5;;;;;;;3.58;87.88379;948.1378;;;;
2022/02/11 10:59:39;;;;;;;1.4;1.3;;;;;;;3.47;88.51465;948.0992;;;;
2022/02/11 11:02:08;;;;;;;1.5;1.4;;;;;;;3.65;87.79688;948.1465;;;;
2022/02/11 11:04:37;;;;;;;1.5;1.4;;;;;;;3.19;87.74707;948.0486;;;;
2022/02/11 11:07:03;;;;;;;1.8;1.5;;;;;;;3.51;87.44141;948.08;;;;
2022/02/11 11:09:31;;;;;;;1.6;1.5;;;;;;;3.25;88.94824;948.0804;;;;
2022/02/11 11:12:02;;;;;;;1.7;1.6;;;;;;;3.54;87.7959;948.1521;;;;
2022/02/11 11:14:28;;;;;;;2;1.8;;;;;;;3.36;88.18652;948.0547;;;;
2022/02/11 11:17:02;;;;;;;1.9;1.7;;;;;;;3.69;86.70313;947.9995;;;;
2022/02/11 11:19:33;;;;;;;2.2;2;;;;;;;3.34;86.92383;948.0981;;;;
2022/02/11 11:22:19;;;;;;;2.5;1.9;;;;;;;3.06;88.75098;948.158;;;;
2022/02/11 11:24:34;;;;;;;2;1.9;;;;;;;2.95;89.01855;948.1964;;;;
2022/02/11 11:27:01;;;;;;;4.4;2.6;;;;;;;2.86;89.28223;948.1721;;;;
2022/02/11 11:29:29;;;;;;;2.8;2.3;;;;;;;3.16;88.29102;948.08;;;;
2022/02/11 11:31:59;;;;;;;3;2.7;;;;;;;3.36;87.14258;948.1955;;;;
2022/02/11 11:34:29;;;;;;;2.4;2.2;;;;;;;3.79;85.7793;948.2007;;;;
2022/02/11 11:36:57;;;;;;;2.3;2.1;;;;;;;4.09;84.43359;948.1303;;;;
2022/02/11 11:39:22;;;;;;;3.5;3.1;;;;;;;4.18;84.2041;948.1553;;;;
2022/02/11 11:41:47;;;;;;;3.7;3.3;;;;;;;4.12;81.85352;948.1945;;;;
2022/02/11 11:44:12;;;;;;;3.5;2.4;;;;;;;4.14;81.02441;948.1951;;;;
2022/02/11 11:46:43;;;;;;;2.9;2.6;;;;;;;4.57;79.77832;948.1046;;;;
2022/02/11 11:49:08;;;;;;;3.5;2.4;;;;;;;5.21;77.6416;948.0565;;;;
2022/02/11 11:51:33;;;;;;;2.8;2.2;;;;;;;5.66;75.67969;948.0967;;;;
2022/02/11 11:53:58;;;;;;;3.9;3.2;;;;;;;5.98;73.28613;947.9406;;;;
2022/02/11 11:56:26;;;;;;;3.8;2.8;;;;;;;6.16;71.63184;947.9117;;;;
2022/02/11 11:58:51;;;;;;;2.3;2.1;;;;;;;6.31;68.43457;947.878;;;;
2022/02/11 12:01:21;;;;;;;2;1.9;;;;;;;5.91;68.62012;947.8996;;;;
2022/02/11 12:03:51;;;;;;;2.6;2.1;;;;;;;4.97;70.55469;947.9764;;;;
2022/02/11 12:06:17;;;;;;;2.7;2.5;;;;;;;4.91;73.56445;948.05;;;;
2022/02/11 12:08:46;;;;;;;2.2;2;;;;;;;5.37;71.28613;947.9178;;;;
2022/02/11 12:11:09;;;;;;;2.8;2.2;;;;;;;5.44;69.74023;947.8959;;;;
2022/02/11 12:13:39;;;;;;;2.9;2.1;;;;;;;4.94;72.02441;947.9709;;;;
2022/02/11 12:16:17;;;;;;;2.5;2.1;;;;;;;4.94;71.43848;948.0159;;;;
2022/02/11 12:18:42;;;;;;;3.2;2.5;;;;;;;4.85;72.73242;948.0623;;;;
2022/02/11 12:21:13;;;;;;;3.2;2.9;;;;;;;5.05;71.86426;948.1027;;;;
2022/02/11 12:28:36;;;;;;;2.9;2.6;;;;;;;5.73;67.7666;948.0344;;;;
2022/02/11 12:31:06;;;;;;;2.8;2.3;;;;;;;5.92;67.05176;948.069;;;;
2022/02/11 12:33:33;;;;;;;5;4;;;;;;;5.83;69.58789;947.9969;;;;
2022/02/11 12:35:55;;;;;;;4.1;3.7;;;;;;;6.15;70.19629;948.0041;;;;
2022/02/11 12:38:28;;;;;;;2.5;2.3;;;;;;;6.95;66.88477;947.9445;;;;
2022/02/11 12:40:53;;;;;;;6.3;3;;;;;;;7.17;65.79785;947.9844;;;;
2022/02/11 12:43:19;;;;;;;3.8;2.5;;;;;;;7.44;67.59668;948.0337;;;;
2022/02/11 12:45:43;;;;;;;2.8;2.1;;;;;;;6.98;67.86426;947.991;;;;
2022/02/11 12:48:13;;;;;;;2.1;1.7;;;;;;;7.03;66.54492;948.0539;;;;
2022/02/11 12:50:38;;;;;;;1.4;1.3;;;;;;;7.78;63.81445;948.0234;;;;
2022/02/11 12:53:03;;;;;;;2.3;1.7;;;;;;;8.29;60.54004;947.9861;;;;
2022/02/11 12:55:36;;;;;;;2.1;1.7;;;;;;;9.83;58.02051;947.9373;;;;
2022/02/11 12:58:01;;;;;;;1.8;1.6;;;;;;;10.14;51.52539;947.9977;;;;
2022/02/11 13:00:28;;;;;;;2.8;2.5;;;;;;;11.14;51.79492;947.95;;;;
2022/02/11 13:02:58;;;;;;;1.7;1.6;;;;;;;14.99;42.0332;947.7745;;;;
2022/02/11 13:05:24;;;;;;;1.2;1.1;;;;;;;14.44;39.65332;947.8477;;;;
2022/02/11 13:07:48;;;;;;;1.4;1.3;;;;;;;13.69;42.97949;947.8568;;;;
2022/02/11 13:10:21;;;;;;;1.7;1.3;;;;;;;16.19;35.67188;947.902;;;;
2022/02/11 13:12:46;;;;;;;2;1.4;;;;;;;16.45;35.62305;947.9338;;;;
2022/02/11 13:15:19;;;;;;;1.8;1.5;;;;;;;16.47;36.25;947.9258;;;;
2022/02/11 13:17:46;;;;;;;1.5;1.2;;;;;;;15.06;38.40625;947.9518;;;;
2022/02/11 13:20:32;;;;;;;1.5;1.4;;;;;;;11.71;45.19824;948.0533;;;;
2022/02/11 13:22:56;;;;;;;1.6;1.5;;;;;;;12.1;44.35645;948.0309;;;;
2022/02/11 13:25:24;;;;;;;2;1.5;;;;;;;12.26;44.58008;948.0278;;;;
2022/02/11 13:27:56;;;;;;;1.5;1.4;;;;;;;9.8;51.31445;947.9911;;;;
2022/02/11 13:30:25;;;;;;;1.4;1.3;;;;;;;8.45;53.4043;948.0199;;;;
2022/02/11 13:32:52;;;;;;;1.3;1.2;;;;;;;8.91;54.03027;948.0123;;;;
2022/02/11 13:35:29;;;;;;;1.3;1.2;;;;;;;9;53.05176;948.0078;;;;
2022/02/11 13:37:55;;;;;;;1.6;1.3;;;;;;;8.46;54.90527;948.0441;;;;
2022/02/11 13:40:23;;;;;;;1.6;1.4;;;;;;;8.57;55.76074;948.0786;;;;
2022/02/11 13:42:50;;;;;;;1.7;1.6;;;;;;;9.53;52.84375;947.9554;;;;
2022/02/11 13:45:16;;;;;;;2.5;1.5;;;;;;;11.11;46.58887;948.0011;;;;
2022/02/11 13:47:42;;;;;;;1.9;1.4;;;;;;;10.54;47.55371;947.9547;;;;
2022/02/11 13:50:13;;;;;;;2.1;1.6;;;;;;;10.88;52.49414;947.9675;;;;
2022/02/11 13:55:12;;;;;;;1.6;1.3;;;;;;;17.27;34.7627;947.8233;;;;
2022/02/11 13:57:40;;;;;;;1.2;1.1;;;;;;;19.12;31.76563;947.8745;;;;
2022/02/11 14:00:16;;;;;;;1.3;1.1;;;;;;;18.44;32.01855;947.8876;;;;
2022/02/11 14:02:41;;;;;;;0.8;0.8;;;;;;;19.83;28.87793;947.9534;;;;
2022/02/11 14:05:16;;;;;;;1.1;0.7;;;;;;;20.75;27.78027;947.8851;;;;
2022/02/11 14:07:41;;;;;;;0.8;0.8;;;;;;;22.4;25.24414;947.8946;;;;
2022/02/11 14:10:07;;;;;;;1;0.9;;;;;;;23.19;24.87793;947.8954;;;;
2022/02/11 14:12:39;;;;;;;0.6;0.6;;;;;;;23.44;24.43359;947.9363;;;;
2022/02/11 14:15:02;;;;;;;1;0.8;;;;;;;24.06;24.14941;947.9294;;;;
2022/02/11 14:17:29;;;;;;;0.7;0.7;;;;;;;23.03;24.41113;947.8391;;;;
2022/02/11 14:19:54;;;;;;;1.2;0.8;;;;;;;22.36;24.37402;947.8444;;;;
2022/02/11 14:22:21;;;;;;;1;0.7;;;;;;;22.34;24.70117;947.9097;;;;
2022/02/11 14:24:46;;;;;;;0.8;0.6;;;;;;;23.8;23.65332;947.8935;;;;
2022/02/11 14:27:13;;;;;;;0.9;0.7;;;;;;;24.82;22.65723;947.9753;;;;
2022/02/11 14:29:45;;;;;;;1.2;0.9;;;;;;;24.61;22.66992;947.926;;;;
2022/02/11 14:32:13;;;;;;;0.7;0.6;;;;;;;24.71;22.43945;947.9869;;;;
2022/02/11 14:34:42;;;;;;;0.8;0.8;;;;;;;24.71;22.19238;948.0528;;;;
2022/02/11 14:37:13;;;;;;;0.7;0.7;;;;;;;24.16;22.28223;948.0665;;;;
2022/02/11 14:39:39;;;;;;;0.7;0.6;;;;;;;23.9;22.72852;948.0709;;;;
2022/02/11 14:42:04;;;;;;;1.1;0.6;;;;;;;23.34;23.45215;948.1017;;;;
2022/02/11 14:44:29;;;;;;;1.1;0.7;;;;;;;22.65;23.50977;948.1677;;;;
2022/02/11 14:46:57;;;;;;;0.8;0.5;;;;;;;23.53;23.35645;948.1786;;;;
2022/02/11 14:49:23;;;;;;;0.5;0.5;;;;;;;23.96;23.03809;948.2059;;;;
2022/02/11 14:51:52;;;;;;;0.4;0.4;;;;;;;22.09;24.41797;948.2625;;;;
2022/02/11 14:54:23;;;;;;;0.6;0.5;;;;;;;22.32;23.79688;948.2567;;;;
2022/02/11 14:56:54;;;;;;;0.4;0.4;;;;;;;22.17;23.94141;948.2664;;;;
2022/02/11 14:59:18;;;;;;;1.2;0.5;;;;;;;22.41;24.10645;948.3077;;;;
2022/02/11 15:01:47;;;;;;;1.4;0.6;;;;;;;22.34;24.02148;948.3569;;;;
2022/02/11 15:04:17;;;;;;;1.1;0.8;;;;;;;18.89;29.01367;948.3321;;;;
2022/02/11 15:06:42;;;;;;;0.7;0.7;;;;;;;15.48;34.05469;948.5115;;;;
2022/02/11 15:09:10;;;;;;;0.7;0.7;;;;;;;15.71;33.92285;948.4366;;;;
2022/02/11 15:11:35;;;;;;;0.6;0.5;;;;;;;14.89;34.13574;948.4192;;;;
2022/02/11 15:14:03;;;;;;;1.9;1.4;;;;;;;12.96;38.46289;948.4877;;;;
2022/02/11 15:16:36;;;;;;;2.3;1.9;;;;;;;11.44;41.64648;948.4875;;;;
2022/02/11 15:19:06;;;;;;;11.8;4.5;;;;;;;9.21;46.7373;948.5259;;;;
2022/02/11 15:21:31;;;;;;;2.4;1.7;;;;;;;8.59;48.90918;948.5485;;;;
2022/02/11 15:24:00;;;;;;;1.7;1.3;;;;;;;8.84;49.29004;948.6129;;;;
2022/02/11 15:26:29;;;;;;;0.8;0.8;;;;;;;7.86;49.80176;948.6489;;;;
2022/02/11 15:28:54;;;;;;;0.9;0.9;;;;;;;7.88;51.06348;948.7167;;;;
2022/02/11 15:31:20;;;;;;;1.8;1.2;;;;;;;7.77;50.66504;948.6912;;;;
2022/02/11 15:33:45;;;;;;;1.4;1.3;;;;;;;6.94;53.87305;948.6852;;;;
2022/02/11 15:36:14;;;;;;;0.8;0.8;;;;;;;6.9;55;948.7422;;;;
2022/02/11 15:38:44;;;;;;;0.9;0.9;;;;;;;6.83;53.51953;948.7497;;;;
2022/02/11 15:41:10;;;;;;;1.3;1.2;;;;;;;6.55;52.95313;948.8445;;;;
2022/02/11 15:43:37;;;;;;;1.1;1;;;;;;;6.47;53.15918;948.7662;;;;
2022/02/11 15:46:03;;;;;;;1.9;1.3;;;;;;;6.13;54.24609;948.8539;;;;
2022/02/11 15:48:33;;;;;;;1.2;1.1;;;;;;;5.97;54.51953;948.9346;;;;
2022/02/11 15:50:58;;;;;;;1.1;1;;;;;;;5.89;55.11914;949.0579;;;;
2022/02/11 15:53:26;;;;;;;1.4;1.1;;;;;;;5.53;56.00977;949.087;;;;
2022/02/11 15:55:53;;;;;;;2;1.7;;;;;;;5.35;55.28516;949.0505;;;;
2022/02/11 15:58:22;;;;;;;5.1;3;;;;;;;5.18;57.75781;949.1651;;;;
2022/02/11 16:00:47;;;;;;;3.1;2.8;;;;;;;4.76;63.16406;949.1926;;;;
2022/02/11 16:03:15;;;;;;;2.9;2.3;;;;;;;4.86;66.29883;949.3239;;;;
2022/02/11 16:05:50;;;;;;;1.2;1;;;;;;;4.63;57.34375;949.3102;;;;
2022/02/11 16:08:15;;;;;;;1.1;1;;;;;;;4.55;58.60547;949.3452;;;;
2022/02/11 16:10:40;;;;;;;1.2;1;;;;;;;4.39;59.7998;949.3481;;;;
2022/02/11 16:13:10;;;;;;;1.3;1.1;;;;;;;4.38;60.00098;949.4019;;;;
2022/02/11 16:15:36;;;;;;;1.5;1.2;;;;;;;4.48;60.24023;949.3647;;;;
2022/02/11 16:18:03;;;;;;;16.3;9.6;;;;;;;4.54;62.5127;949.4852;;;;
2022/02/11 16:20:27;;;;;;;10.9;6.5;;;;;;;4.43;67.80859;949.4275;;;;
2022/02/11 16:22:57;;;;;;;2.6;1.8;;;;;;;4.18;61.47949;949.4203;;;;
2022/02/11 16:25:30;;;;;;;1.7;1.6;;;;;;;4.09;61.03906;949.4448;;;;
2022/02/11 16:27:59;;;;;;;2.4;1.6;;;;;;;3.97;62.26074;949.5712;;;;
2022/02/11 16:30:31;;;;;;;1.5;1.4;;;;;;;4.07;62.22852;949.5645;;;;
2022/02/11 16:33:01;;;;;;;2.4;2.2;;;;;;;4.06;67.80566;949.5719;;;;
2022/02/11 16:35:37;;;;;;;4;3.2;;;;;;;3.95;72.5127;949.6552;;;;
2022/02/11 16:38:07;;;;;;;4.5;4.1;;;;;;;3.55;75.35254;949.6821;;;;
2022/02/11 16:40:32;;;;;;;4;3.7;;;;;;;3.56;75.83691;949.7661;;;;
2022/02/11 16:43:02;;;;;;;2.7;2.5;;;;;;;3.56;75.48926;949.7315;;;;
2022/02/11 16:45:33;;;;;;;3.2;2.7;;;;;;;3.54;75.96777;949.9097;;;;
2022/02/11 16:47:56;;;;;;;3.1;2.6;;;;;;;3.57;76.90625;949.9163;;;;
2022/02/11 16:50:26;;;;;;;3.6;3.3;;;;;;;3.18;79.21582;949.9817;;;;
2022/02/11 16:52:57;;;;;;;3.2;2.8;;;;;;;3.17;78.83008;949.9689;;;;
2022/02/11 16:55:26;;;;;;;4.8;3.6;;;;;;;3.25;78.26172;950.0103;;;;
2022/02/11 16:57:51;;;;;;;9.5;6.7;;;;;;;3.12;77.52051;949.9677;;;;
2022/02/11 17:00:23;;;;;;;13.4;9.1;;;;;;;3.19;76.34375;949.9751;;;;
2022/02/11 17:02:53;;;;;;;7;5.1;;;;;;;3.2;77.27734;950.0446;;;;
2022/02/11 17:05:21;;;;;;;5.3;4.8;;;;;;;3.21;77.59277;950.0281;;;;
2022/02/11 17:07:49;;;;;;;7.6;5.1;;;;;;;3.13;77.49902;950.085;;;;
2022/02/11 17:10:14;;;;;;;4.3;3;;;;;;;2.98;77.26953;950.1028;;;;
2022/02/11 17:12:41;;;;;;;3.7;2.7;;;;;;;2.95;77.19727;950.1326;;;;
2022/02/11 17:15:06;;;;;;;5.6;2.8;;;;;;;2.94;77.52148;950.1342;;;;
2022/02/11 17:17:32;;;;;;;4.9;3.5;;;;;;;2.88;77.75781;950.1445;;;;
2022/02/11 17:19:57;;;;;;;6.2;4;;;;;;;2.86;77.84473;950.1459;;;;
2022/02/11 17:22:22;;;;;;;6.4;3.8;;;;;;;2.85;78.15625;950.1642;;;;
2022/02/11 17:24:54;;;;;;;6.8;4.5;;;;;;;2.77;78.61133;950.1976;;;;
2022/02/11 17:27:20;;;;;;;8.8;7.3;;;;;;;2.73;78.88477;950.1707;;;;
2022/02/11 17:29:44;;;;;;;8.4;6.2;;;;;;;2.62;79.41406;950.2316;;;;
2022/02/11 17:32:13;;;;;;;6.8;5;;;;;;;2.49;79.51172;950.3279;;;;
2022/02/11 17:34:39;;;;;;;7.2;4.8;;;;;;;2.43;80.29688;950.3369;;;;
2022/02/11 17:37:09;;;;;;;8.2;6.5;;;;;;;2.26;81.64063;950.3414;;;;
2022/02/11 17:39:37;;;;;;;12.5;9.3;;;;;;;2.14;82.16797;950.4277;;;;
2022/02/11 17:42:02;;;;;;;27.2;18.2;;;;;;;1.97;82.05664;950.4503;;;;
2022/02/11 17:44:30;;;;;;;79.1;53.5;;;;;;;1.95;82.21875;950.5455;;;;